Time;durP1;ratioP1;P1;durP2;ratioP2;P2;SDS_P1;SDS_P2;PMS_P1;PMS_P2;Temp;Humidity;BMP_temperature;BMP_pressure;BME280_temperature;BME280_humidity;BME280_pressure;Samples;Min_cycle;Max_cycle;Signal;HPM_P1;HPM_P2
2023/01/13 00:01:17;;;;;;;1.00;0.35;;;10.70;99.90;;;;;;4146325;28;20038;-72
2023/01/13 00:03:18;;;;;;;2.43;0.67;;;10.70;99.90;;;;;;4143474;28;20068;-72
2023/01/13 00:05:19;;;;;;;2.10;0.63;;;10.70;99.90;;;;;;4144221;28;20026;-71
2023/01/13 00:07:19;;;;;;;2.00;0.40;;;10.70;99.90;;;;;;4145061;28;20113;-71
2023/01/13 00:09:20;;;;;;;1.95;0.60;;;10.70;99.90;;;;;;4145743;28;20034;-71
2023/01/13 00:11:21;;;;;;;4.97;0.90;;;10.70;99.90;;;;;;4145557;28;20030;-71
2023/01/13 00:13:25;;;;;;;3.97;0.80;;;10.70;99.90;;;;;;4146170;28;20037;-72
2023/01/13 00:15:26;;;;;;;1.23;0.40;;;10.70;99.90;;;;;;4144638;28;20108;-72
2023/01/13 00:17:26;;;;;;;3.50;0.80;;;10.70;99.90;;;;;;4146131;28;20497;-72
2023/01/13 00:19:27;;;;;;;1.08;0.43;;;10.70;99.90;;;;;;4144327;28;20041;-72
2023/01/13 00:21:27;;;;;;;1.98;0.82;;;10.70;99.90;;;;;;4144823;28;20053;-72
2023/01/13 00:23:29;;;;;;;2.33;0.70;;;10.70;99.90;;;;;;4145457;28;20289;-73
2023/01/13 00:25:30;;;;;;;3.97;0.80;;;10.70;99.90;;;;;;4145455;28;20478;-72
2023/01/13 00:27:30;;;;;;;7.03;1.05;;;10.70;99.90;;;;;;4146524;28;20087;-72
2023/01/13 00:29:31;;;;;;;7.00;1.25;;;10.70;99.90;;;;;;4145258;28;20030;-73
2023/01/13 00:31:32;;;;;;;4.05;0.70;;;10.60;99.90;;;;;;4145596;28;20024;-72
2023/01/13 00:33:33;;;;;;;7.13;1.60;;;10.70;99.90;;;;;;4145947;28;20085;-72
2023/01/13 00:35:33;;;;;;;3.25;1.13;;;10.60;99.90;;;;;;4146166;28;20428;-73
2023/01/13 00:37:38;;;;;;;7.22;1.50;;;10.60;99.90;;;;;;4146460;28;20496;-73
2023/01/13 00:39:38;;;;;;;4.95;1.40;;;10.60;99.90;;;;;;4145661;28;25238;-72
2023/01/13 00:43:58;;;;;;;6.53;1.50;;;10.50;99.90;;;;;;4146313;28;20057;-73
2023/01/13 00:45:59;;;;;;;5.28;1.20;;;10.50;99.90;;;;;;4145899;28;20029;-72
2023/01/13 00:48:00;;;;;;;5.10;1.83;;;10.50;99.90;;;;;;4144384;28;20033;-73
2023/01/13 00:50:00;;;;;;;2.45;0.85;;;10.50;99.90;;;;;;4147572;28;20514;-72
2023/01/13 00:52:01;;;;;;;6.82;1.20;;;10.50;99.90;;;;;;4145231;28;20038;-72
2023/01/13 00:54:01;;;;;;;5.68;1.30;;;10.50;99.90;;;;;;4146328;28;20137;-72
2023/01/13 00:56:03;;;;;;;3.20;1.00;;;10.50;99.90;;;;;;4145745;28;20396;-73
2023/01/13 00:58:04;;;;;;;5.87;1.07;;;10.50;99.90;;;;;;4146973;28;20428;-72
2023/01/13 01:00:05;;;;;;;4.57;1.27;;;10.50;99.90;;;;;;4146516;28;20038;-72
2023/01/13 01:02:05;;;;;;;7.75;1.92;;;10.50;99.90;;;;;;4143698;28;20402;-73
2023/01/13 01:04:06;;;;;;;7.50;1.35;;;10.40;99.90;;;;;;4145242;28;20469;-72
2023/01/13 01:06:14;;;;;;;4.88;1.33;;;10.40;99.90;;;;;;4145576;28;20520;-73
2023/01/13 01:08:15;;;;;;;8.07;1.90;;;10.40;99.90;;;;;;4146942;28;20113;-73
2023/01/13 01:10:15;;;;;;;7.15;1.38;;;10.40;99.90;;;;;;4145579;28;20702;-73
2023/01/13 01:12:16;;;;;;;4.25;1.42;;;10.40;99.90;;;;;;4145767;28;20030;-73
2023/01/13 01:14:17;;;;;;;6.13;1.42;;;10.40;99.90;;;;;;4145963;28;20022;-72
2023/01/13 01:16:20;;;;;;;6.97;1.50;;;10.40;99.90;;;;;;4145548;28;20113;-73
2023/01/13 01:18:20;;;;;;;11.65;1.65;;;10.40;99.90;;;;;;4146279;28;20034;-72
2023/01/13 01:20:21;;;;;;;8.90;1.63;;;10.30;99.90;;;;;;4145337;28;20036;-71
2023/01/13 01:22:22;;;;;;;7.72;1.40;;;10.30;99.90;;;;;;4145335;28;20543;-73
2023/01/13 01:24:22;;;;;;;13.15;2.60;;;10.30;99.90;;;;;;4145781;28;20530;-73
2023/01/13 01:26:24;;;;;;;7.55;1.98;;;10.30;99.90;;;;;;4145236;28;20400;-73
2023/01/13 01:28:25;;;;;;;10.52;2.33;;;10.20;99.90;;;;;;4147933;28;20037;-73
2023/01/13 01:30:26;;;;;;;7.30;1.88;;;10.20;99.90;;;;;;4144337;28;20034;-73
2023/01/13 01:32:26;;;;;;;8.63;1.45;;;10.20;99.90;;;;;;4143146;28;20038;-73
2023/01/13 01:34:27;;;;;;;9.05;1.98;;;10.10;99.90;;;;;;4145706;28;20026;-73
2023/01/13 01:36:31;;;;;;;6.15;1.60;;;10.10;99.90;;;;;;4145265;28;20030;-74
2023/01/13 01:38:31;;;;;;;8.20;1.83;;;10.20;99.90;;;;;;4146185;28;20021;-74
2023/01/13 01:40:32;;;;;;;10.25;2.35;;;10.20;99.90;;;;;;4144531;28;20030;-74
2023/01/13 01:45:00;;;;;;;13.07;2.75;;;10.10;99.90;;;;;;4145098;28;20044;-73
2023/01/13 01:47:01;;;;;;;7.30;2.20;;;10.10;99.90;;;;;;4143964;28;20042;-74
2023/01/13 01:49:18;;;;;;;9.23;1.98;;;10.10;99.90;;;;;;4145235;28;20061;-73
2023/01/13 01:51:20;;;;;;;15.57;2.55;;;10.10;99.90;;;;;;4144791;28;20026;-74
2023/01/13 01:53:24;;;;;;;8.70;2.10;;;10.00;99.90;;;;;;4144474;28;20091;-73
2023/01/13 01:55:29;;;;;;;13.10;2.63;;;10.10;99.90;;;;;;4144700;28;20108;-73
2023/01/13 01:57:50;;;;;;;12.70;2.25;;;10.00;99.90;;;;;;4144871;28;20026;-74
2023/01/13 01:59:51;;;;;;;13.18;2.63;;;10.10;99.90;;;;;;4143625;28;20034;-74
2023/01/13 02:01:52;;;;;;;9.65;1.80;;;9.90;99.90;;;;;;4144906;28;20125;-72
2023/01/13 02:03:58;;;;;;;15.25;2.42;;;10.00;99.90;;;;;;4145377;28;20038;-73
2023/01/13 02:05:59;;;;;;;11.50;2.33;;;10.00;99.90;;;;;;4145020;28;20079;-73
2023/01/13 02:08:01;;;;;;;8.63;2.00;;;9.90;99.90;;;;;;4144262;28;20451;-74
2023/01/13 02:10:05;;;;;;;14.45;2.72;;;10.00;99.90;;;;;;4144945;28;20053;-74
2023/01/13 02:14:27;;;;;;;8.30;1.70;;;10.00;99.90;;;;;;4144493;28;20034;-74
2023/01/13 02:16:28;;;;;;;9.00;2.90;;;9.90;99.90;;;;;;4144270;28;20053;-74
2023/01/13 02:18:42;;;;;;;7.93;2.03;;;9.90;99.90;;;;;;4147343;28;20389;-74
2023/01/13 02:21:10;;;;;;;11.00;2.45;;;9.90;99.90;;;;;;4145133;28;20061;-74
2023/01/13 02:26:31;;;;;;;10.32;2.25;;;9.80;99.90;;;;;;4143892;28;20034;-75
2023/01/13 02:33:45;;;;;;;14.80;2.72;;;9.70;99.90;;;;;;4145607;28;20040;-75
2023/01/13 02:36:10;;;;;;;14.60;2.97;;;9.80;99.90;;;;;;4145134;28;20034;-75
2023/01/13 02:38:13;;;;;;;15.90;3.28;;;9.70;99.90;;;;;;4143463;28;20061;-75
2023/01/13 02:40:54;;;;;;;9.95;2.30;;;9.70;99.90;;;;;;4144962;28;20026;-75
2023/01/13 02:45:41;;;;;;;15.15;3.15;;;9.70;99.90;;;;;;4144688;28;20045;-74
2023/01/13 02:47:46;;;;;;;17.50;3.08;;;9.70;99.90;;;;;;4146401;28;20034;-75
2023/01/13 02:49:55;;;;;;;18.45;3.25;;;9.60;99.90;;;;;;4144575;28;20038;-74
2023/01/13 02:52:02;;;;;;;13.13;2.47;;;9.60;99.90;;;;;;4144363;28;20026;-75
2023/01/13 02:54:11;;;;;;;15.07;3.05;;;9.60;99.90;;;;;;4145779;28;20061;-75
2023/01/13 02:56:15;;;;;;;14.85;3.00;;;9.60;99.90;;;;;;4144157;28;20037;-75
2023/01/13 02:58:21;;;;;;;25.02;3.28;;;9.60;99.90;;;;;;4146177;28;20484;-75
2023/01/13 03:00:22;;;;;;;16.17;3.15;;;9.50;99.90;;;;;;4144179;28;20068;-74
2023/01/13 03:02:24;;;;;;;21.75;3.33;;;9.50;99.90;;;;;;4145271;28;20104;-74
2023/01/13 03:04:54;;;;;;;13.20;3.72;;;9.50;99.90;;;;;;4145484;28;20045;-74
2023/01/13 03:07:11;;;;;;;13.27;3.20;;;9.50;99.90;;;;;;4154667;28;20061;-75
2023/01/13 03:09:37;;;;;;;18.13;3.90;;;9.50;99.90;;;;;;4143984;28;20133;-75
2023/01/13 03:11:47;;;;;;;15.45;3.25;;;9.50;99.90;;;;;;4147284;28;20083;-75
2023/01/13 03:14:01;;;;;;;12.35;2.90;;;9.40;99.90;;;;;;4147973;28;20060;-75
2023/01/13 03:16:18;;;;;;;14.07;3.03;;;9.40;99.90;;;;;;4148056;28;20128;-75
2023/01/13 03:18:27;;;;;;;9.65;2.55;;;9.40;99.90;;;;;;4149688;28;20045;-74
2023/01/13 03:20:34;;;;;;;12.00;2.67;;;9.40;99.90;;;;;;4131863;28;20034;-74
2023/01/13 03:22:52;;;;;;;17.95;3.28;;;9.40;99.90;;;;;;4145492;28;20393;-73
2023/01/13 03:25:07;;;;;;;18.48;3.20;;;9.30;99.90;;;;;;4148192;28;20038;-73
2023/01/13 03:27:19;;;;;;;18.00;3.58;;;9.30;99.90;;;;;;4147077;28;20049;-74
2023/01/13 03:29:38;;;;;;;12.55;2.78;;;9.30;99.90;;;;;;4147989;28;20038;-74
2023/01/13 03:31:48;;;;;;;24.02;3.55;;;9.30;99.90;;;;;;4147394;28;20425;-74
2023/01/13 03:34:09;;;;;;;10.48;2.50;;;9.30;99.90;;;;;;4148765;28;20034;-74
2023/01/13 03:36:13;;;;;;;15.32;3.15;;;9.30;99.90;;;;;;4147100;28;20038;-73
2023/01/13 03:38:20;;;;;;;16.25;3.13;;;9.30;99.90;;;;;;4147769;28;20528;-74
2023/01/13 03:40:26;;;;;;;14.52;2.80;;;9.30;99.90;;;;;;4146890;28;20030;-73
2023/01/13 03:42:31;;;;;;;12.48;2.55;;;9.30;99.90;;;;;;4148145;28;20040;-73
2023/01/13 03:44:37;;;;;;;12.40;2.85;;;9.30;99.90;;;;;;4147737;28;20097;-73
2023/01/13 03:46:45;;;;;;;9.77;2.40;;;9.30;99.90;;;;;;4148009;28;20113;-73
2023/01/13 03:48:50;;;;;;;12.45;2.42;;;9.20;99.90;;;;;;4149687;28;20072;-72
2023/01/13 03:50:55;;;;;;;12.25;2.20;;;9.30;99.90;;;;;;4147698;28;20038;-67
2023/01/13 03:53:10;;;;;;;8.40;2.47;;;9.20;99.90;;;;;;4145012;28;20105;-72
2023/01/13 03:55:14;;;;;;;7.75;2.13;;;9.20;99.90;;;;;;4146178;28;20042;-73
2023/01/13 03:57:18;;;;;;;11.20;1.92;;;9.20;99.90;;;;;;4145509;28;20052;-73
2023/01/13 03:59:23;;;;;;;8.75;1.73;;;9.20;99.90;;;;;;4147186;28;20045;-73
2023/01/13 04:01:46;;;;;;;13.30;2.58;;;9.20;99.90;;;;;;4142254;28;20029;-72
2023/01/13 04:03:54;;;;;;;9.18;1.95;;;9.20;99.90;;;;;;4146629;28;20030;-73
2023/01/13 04:06:03;;;;;;;11.15;2.03;;;9.10;99.90;;;;;;4145227;28;20032;-73
2023/01/13 04:08:14;;;;;;;10.23;2.17;;;9.10;99.90;;;;;;4148302;28;20080;-73
2023/01/13 04:10:20;;;;;;;7.93;1.92;;;9.10;99.90;;;;;;4145446;28;20045;-73
2023/01/13 04:13:02;;;;;;;10.23;1.60;;;9.10;99.90;;;;;;4147091;28;20030;-73
2023/01/13 04:15:04;;;;;;;7.78;1.98;;;9.10;99.90;;;;;;4145324;28;20080;-74
2023/01/13 04:17:04;;;;;;;15.02;2.10;;;9.10;99.90;;;;;;4145429;28;20034;-73
2023/01/13 04:19:05;;;;;;;5.05;1.60;;;9.10;99.90;;;;;;4146462;28;20030;-73
2023/01/13 04:21:06;;;;;;;9.65;2.00;;;9.10;99.90;;;;;;4145418;28;20034;-72
2023/01/13 04:23:07;;;;;;;8.82;2.28;;;9.10;99.90;;;;;;4146014;28;20041;-73
2023/01/13 04:25:08;;;;;;;11.15;2.38;;;9.10;99.90;;;;;;4146148;28;20034;-73
2023/01/13 04:27:09;;;;;;;13.30;2.40;;;9.10;99.90;;;;;;4147697;28;20037;-73
2023/01/13 04:29:10;;;;;;;15.05;2.65;;;9.10;99.90;;;;;;4146470;28;20080;-73
2023/01/13 04:31:11;;;;;;;12.02;2.72;;;9.20;99.90;;;;;;4144925;28;20162;-73
2023/01/13 04:33:12;;;;;;;11.63;2.53;;;9.10;99.90;;;;;;4146657;28;20038;-73
2023/01/13 04:35:13;;;;;;;9.47;2.20;;;9.10;99.90;;;;;;4146167;28;20026;-73
2023/01/13 04:37:14;;;;;;;16.38;2.65;;;9.20;99.90;;;;;;4146505;28;20550;-73
2023/01/13 04:39:14;;;;;;;11.00;2.72;;;9.20;99.90;;;;;;4144857;28;20034;-74
2023/01/13 04:41:15;;;;;;;14.15;2.70;;;9.20;99.90;;;;;;4143065;28;20034;-74
2023/01/13 04:43:15;;;;;;;10.40;2.25;;;9.20;99.90;;;;;;4143665;28;20022;-73
2023/01/13 04:45:16;;;;;;;11.85;2.25;;;9.20;99.90;;;;;;4145248;28;20041;-72
2023/01/13 04:47:16;;;;;;;15.82;2.72;;;9.20;99.90;;;;;;4144955;28;20040;-73
2023/01/13 04:49:17;;;;;;;8.75;1.98;;;9.20;99.90;;;;;;4147250;28;20030;-73
2023/01/13 04:51:18;;;;;;;11.57;2.55;;;9.20;99.90;;;;;;4144936;28;20030;-73
2023/01/13 04:53:18;;;;;;;12.63;2.15;;;9.20;99.90;;;;;;4146550;28;20378;-73
2023/01/13 04:55:22;;;;;;;13.30;2.70;;;9.20;99.90;;;;;;4145781;28;20489;-73
2023/01/13 04:57:22;;;;;;;7.53;1.90;;;9.20;99.90;;;;;;4145696;28;20034;-70
2023/01/13 04:59:23;;;;;;;10.45;2.03;;;9.20;99.90;;;;;;4143812;28;20044;-71
2023/01/13 05:01:24;;;;;;;8.95;2.05;;;9.20;99.90;;;;;;4142911;28;20041;-73
2023/01/13 05:03:25;;;;;;;15.30;3.33;;;9.20;99.90;;;;;;4144683;28;20137;-73
2023/01/13 05:05:27;;;;;;;13.25;2.85;;;9.20;99.90;;;;;;4136704;28;20042;-73
2023/01/13 05:07:28;;;;;;;10.82;2.83;;;9.20;99.90;;;;;;4141139;28;20477;-73
2023/01/13 05:09:29;;;;;;;17.35;3.13;;;9.20;99.90;;;;;;4138753;28;20038;-73
2023/01/13 05:18:30;;;;;;;11.77;2.22;;;9.20;99.90;;;;;;4142259;28;20034;-74
2023/01/13 05:20:30;;;;;;;12.70;2.75;;;9.20;99.90;;;;;;4140422;28;20374;-73
2023/01/13 05:27:09;;;;;;;15.10;2.42;;;9.20;99.90;;;;;;4140314;28;20137;-73
2023/01/13 05:29:10;;;;;;;10.73;2.42;;;9.20;99.90;;;;;;4143204;28;20092;-73
2023/01/13 05:31:13;;;;;;;13.07;2.38;;;9.20;99.90;;;;;;4142917;28;20045;-74
2023/01/13 05:33:16;;;;;;;14.00;2.40;;;9.20;99.90;;;;;;4144181;28;20121;-73
2023/01/13 05:35:17;;;;;;;14.85;2.70;;;9.20;99.90;;;;;;4143327;28;20075;-74
2023/01/13 05:37:17;;;;;;;8.32;1.70;;;9.20;99.90;;;;;;4143993;28;20034;-73
2023/01/13 05:39:18;;;;;;;11.68;2.10;;;9.20;99.90;;;;;;4143130;28;20068;-74
2023/01/13 05:43:38;;;;;;;9.02;2.20;;;9.20;99.90;;;;;;4131591;28;20109;-73
2023/01/13 05:45:38;;;;;;;8.93;2.42;;;9.20;99.90;;;;;;4140916;28;20045;-74
2023/01/13 05:47:39;;;;;;;9.32;1.70;;;9.20;99.90;;;;;;4139796;28;20029;-73
2023/01/13 05:49:40;;;;;;;11.55;2.22;;;9.20;99.90;;;;;;4138027;28;20068;-73
2023/01/13 05:51:40;;;;;;;11.70;1.98;;;9.20;99.90;;;;;;4140628;28;20037;-73
2023/01/13 05:53:41;;;;;;;13.85;2.63;;;9.20;99.90;;;;;;4141271;28;20034;-74
2023/01/13 05:55:43;;;;;;;16.60;3.17;;;9.20;99.90;;;;;;4141692;28;20583;-73
2023/01/13 05:57:43;;;;;;;10.20;2.00;;;9.10;99.90;;;;;;4143472;28;20058;-74
2023/01/13 05:59:44;;;;;;;12.63;2.85;;;9.10;99.90;;;;;;4137534;28;20257;-74
2023/01/13 06:01:44;;;;;;;7.75;2.30;;;9.10;99.90;;;;;;4128675;28;20109;-74
2023/01/13 06:03:45;;;;;;;8.73;1.83;;;9.10;99.90;;;;;;4138698;28;20026;-74
2023/01/13 06:05:46;;;;;;;10.95;2.25;;;9.10;99.90;;;;;;4140625;28;20129;-74
2023/01/13 06:07:46;;;;;;;11.57;2.40;;;9.10;99.90;;;;;;4140393;28;20046;-75
2023/01/13 06:09:47;;;;;;;10.77;2.60;;;9.00;99.90;;;;;;4145384;28;20490;-72
2023/01/13 06:11:48;;;;;;;10.65;2.88;;;9.00;99.90;;;;;;4143298;28;20509;-74
2023/01/13 06:13:49;;;;;;;7.70;2.50;;;9.00;99.90;;;;;;4143737;28;20030;-73
2023/01/13 06:15:49;;;;;;;8.13;2.17;;;9.00;99.90;;;;;;4133352;28;20038;-73
2023/01/13 06:17:50;;;;;;;12.85;2.33;;;9.00;99.90;;;;;;4134345;28;20045;-73
2023/01/13 06:19:51;;;;;;;7.90;2.20;;;9.00;99.90;;;;;;4137324;28;20497;-74
2023/01/13 06:21:54;;;;;;;12.23;2.55;;;9.00;99.90;;;;;;4135743;28;20026;-74
2023/01/13 06:23:55;;;;;;;11.27;2.75;;;9.00;99.90;;;;;;4136444;28;20070;-75
2023/01/13 06:26:09;;;;;;;13.43;2.58;;;9.00;99.90;;;;;;4136551;28;20698;-76
2023/01/13 06:28:09;;;;;;;12.60;2.35;;;8.90;99.90;;;;;;4137906;28;20033;-73
2023/01/13 06:30:10;;;;;;;5.07;1.90;;;8.90;99.90;;;;;;4135680;28;20050;-72
2023/01/13 06:32:31;;;;;;;9.88;2.30;;;8.90;99.90;;;;;;4139600;28;20031;-75
2023/01/13 06:34:34;;;;;;;8.23;2.60;;;8.90;99.90;;;;;;4137614;28;20117;-76
2023/01/13 06:36:40;;;;;;;11.60;2.30;;;8.90;99.90;;;;;;4138107;28;20116;-77
2023/01/13 06:38:45;;;;;;;12.98;2.53;;;8.90;99.90;;;;;;4138525;28;20034;-77
2023/01/13 06:40:46;;;;;;;12.38;2.50;;;8.90;99.90;;;;;;4140504;28;20042;-77
2023/01/13 06:45:07;;;;;;;10.90;2.20;;;8.90;99.90;;;;;;4136783;28;20038;-75
2023/01/13 06:47:07;;;;;;;9.45;2.22;;;8.90;99.90;;;;;;4143452;28;20038;-76
2023/01/13 06:49:08;;;;;;;7.13;1.70;;;8.90;99.90;;;;;;4147654;28;20536;-77
2023/01/13 06:51:09;;;;;;;7.88;2.30;;;8.90;99.90;;;;;;4146027;28;20064;-76
2023/01/13 06:53:09;;;;;;;17.23;2.70;;;8.90;99.90;;;;;;4148760;28;20560;-76
2023/01/13 06:55:10;;;;;;;9.68;2.08;;;8.90;99.90;;;;;;4148041;28;20038;-76
2023/01/13 06:57:11;;;;;;;11.05;1.80;;;8.80;99.90;;;;;;4147895;28;20458;-75
2023/01/13 06:59:12;;;;;;;7.68;1.85;;;8.90;99.90;;;;;;4138544;28;20513;-76
2023/01/13 07:01:12;;;;;;;8.35;1.98;;;8.80;99.90;;;;;;4148304;28;20076;-75
2023/01/13 07:03:15;;;;;;;10.68;2.50;;;8.80;99.90;;;;;;4148529;28;20034;-77
2023/01/13 07:05:16;;;;;;;9.45;2.13;;;8.80;99.90;;;;;;4147787;28;20112;-77
2023/01/13 07:07:17;;;;;;;14.85;2.83;;;8.80;99.90;;;;;;4149525;28;20041;-77
2023/01/13 07:09:17;;;;;;;15.95;2.53;;;8.80;99.90;;;;;;4156009;28;20034;-78
2023/01/13 07:11:18;;;;;;;13.65;2.67;;;8.90;99.90;;;;;;4148223;28;20385;-76
2023/01/13 07:15:38;;;;;;;7.60;1.70;;;8.80;99.90;;;;;;4149166;28;21990;-75
2023/01/13 07:17:39;;;;;;;7.63;2.05;;;8.90;99.90;;;;;;4152861;28;20540;-77
2023/01/13 07:19:40;;;;;;;9.63;2.40;;;8.90;99.90;;;;;;4146991;28;20046;-78
2023/01/13 07:21:41;;;;;;;8.68;2.03;;;8.90;99.90;;;;;;4146654;28;20495;-77
2023/01/13 07:23:41;;;;;;;10.57;1.85;;;8.90;99.90;;;;;;4146714;28;20042;-79
2023/01/13 07:25:42;;;;;;;8.48;1.90;;;8.90;99.90;;;;;;4144683;28;20033;-77
2023/01/13 07:27:42;;;;;;;10.57;2.78;;;8.90;99.90;;;;;;4141760;28;20034;-79
2023/01/13 07:29:43;;;;;;;7.80;2.05;;;8.90;99.90;;;;;;4141991;28;20041;-77
2023/01/13 07:31:44;;;;;;;10.15;2.60;;;8.90;99.90;;;;;;4140629;28;20030;-78
2023/01/13 07:33:45;;;;;;;11.18;2.80;;;8.90;99.90;;;;;;4142028;28;20038;-80
2023/01/13 07:35:47;;;;;;;7.30;1.85;;;8.90;99.90;;;;;;4140303;28;20037;-78
2023/01/13 07:37:47;;;;;;;10.48;2.28;;;8.90;99.90;;;;;;4142538;28;20112;-77
2023/01/13 07:39:49;;;;;;;9.10;2.03;;;8.90;99.90;;;;;;4142580;28;20434;-77
2023/01/13 07:44:09;;;;;;;10.60;2.90;;;8.90;99.90;;;;;;4140882;28;20124;-78
2023/01/13 07:46:10;;;;;;;8.15;1.95;;;8.90;99.90;;;;;;4138707;28;20036;-79
2023/01/13 07:48:11;;;;;;;11.10;2.10;;;8.90;99.90;;;;;;4139210;28;20033;-78
2023/01/13 07:50:11;;;;;;;15.63;3.10;;;8.90;99.90;;;;;;4135793;28;20076;-76
2023/01/13 07:52:12;;;;;;;15.15;2.90;;;8.90;99.90;;;;;;4140932;28;20569;-78
2023/01/13 07:54:12;;;;;;;12.57;2.25;;;8.90;99.90;;;;;;4142935;28;20358;-78
2023/01/13 07:56:13;;;;;;;11.23;2.60;;;9.00;99.90;;;;;;4135437;28;20046;-79
2023/01/13 07:58:14;;;;;;;16.80;3.22;;;9.00;99.90;;;;;;4139780;28;20532;-78
2023/01/13 08:00:15;;;;;;;9.65;2.58;;;8.90;99.90;;;;;;4137659;28;20045;-79
2023/01/13 08:02:16;;;;;;;11.77;2.45;;;9.00;99.90;;;;;;4142133;28;20099;-78
2023/01/13 08:04:17;;;;;;;13.65;2.60;;;9.00;99.90;;;;;;4139280;28;20070;-78
2023/01/13 08:06:17;;;;;;;12.85;3.17;;;9.00;99.90;;;;;;4140012;28;20109;-78
2023/01/13 08:08:18;;;;;;;12.27;2.38;;;9.00;99.90;;;;;;4141067;28;20096;-77
2023/01/13 08:10:19;;;;;;;13.30;2.40;;;9.00;99.90;;;;;;4143086;28;20038;-80
2023/01/13 08:14:39;;;;;;;13.30;2.85;;;9.00;99.90;;;;;;4142401;28;20088;-79
2023/01/13 08:16:40;;;;;;;7.53;2.10;;;9.00;99.90;;;;;;4139363;28;20085;-77
2023/01/13 08:18:41;;;;;;;12.80;2.53;;;9.00;99.90;;;;;;4142283;28;20497;-78
2023/01/13 08:20:42;;;;;;;15.05;3.35;;;9.00;99.90;;;;;;4142657;28;20030;-79
2023/01/13 08:22:43;;;;;;;24.23;4.00;;;9.00;99.90;;;;;;4140038;28;20125;-78
2023/01/13 08:24:43;;;;;;;18.55;3.55;;;9.00;99.90;;;;;;4140101;28;20034;-79
2023/01/13 08:26:44;;;;;;;18.23;3.08;;;9.00;99.90;;;;;;4138857;28;20038;-79
2023/01/13 08:28:45;;;;;;;13.77;3.40;;;9.00;99.90;;;;;;4141069;28;20042;-78
2023/01/13 08:30:45;;;;;;;13.50;2.88;;;9.00;99.90;;;;;;4137890;28;20038;-78
2023/01/13 08:32:48;;;;;;;15.75;3.33;;;9.00;99.90;;;;;;4139319;28;20092;-78
2023/01/13 08:34:48;;;;;;;18.95;3.00;;;9.00;99.90;;;;;;4139438;28;20034;-80
2023/01/13 08:36:49;;;;;;;18.02;2.63;;;9.00;99.90;;;;;;4140951;28;20077;-79
2023/01/13 08:38:50;;;;;;;14.38;3.65;;;9.00;99.90;;;;;;4138953;28;20579;-79
2023/01/13 08:40:50;;;;;;;14.18;3.15;;;9.00;99.90;;;;;;4141273;28;20041;-80
2023/01/13 08:42:52;;;;;;;14.88;3.03;;;9.00;99.90;;;;;;4139890;28;20481;-80
2023/01/13 08:44:53;;;;;;;18.92;3.50;;;9.10;99.90;;;;;;4140463;28;20432;-81
2023/01/13 08:46:54;;;;;;;16.23;2.95;;;9.00;99.90;;;;;;4140338;28;20085;-79
2023/01/13 08:48:55;;;;;;;15.38;3.50;;;9.00;99.90;;;;;;4136077;28;20045;-80
2023/01/13 08:51:07;;;;;;;15.18;2.70;;;9.00;99.90;;;;;;4139092;28;20489;-78
2023/01/13 08:53:08;;;;;;;14.48;2.65;;;9.00;99.90;;;;;;4140018;28;20042;-79
2023/01/13 08:55:10;;;;;;;15.75;3.50;;;9.00;99.90;;;;;;4139221;28;20042;-80
2023/01/13 08:57:10;;;;;;;18.38;3.50;;;9.00;99.90;;;;;;4138888;28;20045;-80
2023/01/13 08:59:16;;;;;;;13.63;2.75;;;9.00;99.90;;;;;;4140435;28;20034;-79
2023/01/13 09:01:21;;;;;;;12.60;2.17;;;9.00;99.90;;;;;;4137004;28;20093;-80
2023/01/13 09:03:21;;;;;;;7.63;1.98;;;9.00;99.90;;;;;;4139739;28;20867;-80
2023/01/13 09:05:22;;;;;;;13.90;3.20;;;9.10;99.90;;;;;;4138731;28;20416;-80
2023/01/13 09:07:23;;;;;;;18.27;3.10;;;9.10;99.90;;;;;;4141417;28;20030;-80
2023/01/13 09:09:25;;;;;;;13.63;3.22;;;9.10;99.90;;;;;;4141272;28;20041;-79
2023/01/13 09:13:49;;;;;;;18.13;2.85;;;9.10;99.90;;;;;;4141909;28;20117;-80
2023/01/13 09:15:51;;;;;;;13.50;3.13;;;9.10;99.90;;;;;;4138092;28;20776;-81
2023/01/13 09:17:51;;;;;;;17.33;3.33;;;9.10;99.90;;;;;;4139124;28;20125;-79
2023/01/13 09:19:52;;;;;;;12.98;2.70;;;9.20;99.90;;;;;;4141127;28;20135;-80
2023/01/13 09:21:54;;;;;;;14.52;2.67;;;9.20;99.90;;;;;;4140284;28;20033;-80
2023/01/13 09:23:55;;;;;;;15.23;2.77;;;9.30;99.90;;;;;;4140519;28;20050;-81
2023/01/13 09:25:55;;;;;;;19.10;3.65;;;9.40;99.90;;;;;;4141190;28;20042;-80
2023/01/13 09:27:56;;;;;;;15.05;3.20;;;9.50;99.90;;;;;;4141827;28;20030;-80
2023/01/13 09:29:57;;;;;;;17.83;3.72;;;9.60;99.90;;;;;;4138381;28;20401;-79
2023/01/13 09:31:58;;;;;;;16.88;3.78;;;9.70;99.90;;;;;;4138501;28;20033;-81
2023/01/13 09:36:21;;;;;;;11.60;2.47;;;10.00;99.90;;;;;;4140818;28;20165;-80
2023/01/13 09:38:21;;;;;;;16.08;3.20;;;10.10;99.90;;;;;;4139364;28;20583;-80
2023/01/13 09:40:22;;;;;;;15.98;3.08;;;10.10;99.90;;;;;;4141729;28;20030;-80
2023/01/13 09:45:44;;;;;;;15.65;3.42;;;10.10;99.90;;;;;;4136355;28;20056;-79
2023/01/13 09:48:05;;;;;;;13.68;2.88;;;10.20;99.90;;;;;;4128141;28;20032;-79
2023/01/13 09:50:36;;;;;;;14.93;3.25;;;10.10;99.90;;;;;;4141916;28;20600;-80
2023/01/13 09:52:36;;;;;;;10.55;2.70;;;10.10;99.90;;;;;;4140228;28;20524;-80
2023/01/13 09:54:41;;;;;;;15.43;3.67;;;10.10;99.90;;;;;;4140184;28;20336;-80
2023/01/13 09:56:42;;;;;;;17.27;3.08;;;10.10;99.90;;;;;;4139461;28;20038;-80
2023/01/13 09:58:45;;;;;;;19.33;4.55;;;10.10;99.90;;;;;;4140355;28;20080;-80
2023/01/13 10:00:49;;;;;;;16.38;3.35;;;10.20;99.90;;;;;;4140861;28;20046;-80
2023/01/13 10:03:19;;;;;;;13.60;3.10;;;10.10;99.90;;;;;;4141238;28;20147;-78
2023/01/13 10:05:37;;;;;;;19.80;4.10;;;10.10;99.90;;;;;;4139853;28;20076;-79
2023/01/13 10:07:53;;;;;;;21.55;3.88;;;10.10;99.90;;;;;;4139828;28;20144;-80
2023/01/13 10:09:56;;;;;;;20.95;3.80;;;10.20;99.90;;;;;;4139046;28;20053;-79
2023/01/13 10:14:25;;;;;;;27.60;4.13;;;10.20;99.90;;;;;;4142754;28;20034;-79
2023/01/13 10:17:10;;;;;;;17.25;3.72;;;10.20;99.90;;;;;;4141620;28;20042;-78
2023/01/13 10:19:18;;;;;;;21.40;3.83;;;10.20;99.90;;;;;;4119720;28;20046;-77
2023/01/13 10:21:37;;;;;;;28.45;4.78;;;10.10;99.90;;;;;;4142661;28;20034;-80
2023/01/13 10:24:06;;;;;;;16.88;3.15;;;10.20;99.90;;;;;;4141910;28;20045;-79
2023/01/13 10:26:28;;;;;;;19.25;4.20;;;10.20;99.90;;;;;;4143153;28;20054;-79
2023/01/13 10:28:29;;;;;;;14.00;3.55;;;10.20;99.90;;;;;;4143467;28;20474;-79
2023/01/13 10:30:38;;;;;;;20.95;4.72;;;10.20;99.90;;;;;;4143349;28;20030;-79
2023/01/13 10:32:43;;;;;;;17.77;3.88;;;10.20;99.90;;;;;;4142730;28;20109;-79
2023/01/13 10:34:50;;;;;;;18.50;3.45;;;10.20;99.90;;;;;;4143650;28;20026;-79
2023/01/13 10:37:05;;;;;;;18.10;3.70;;;10.20;99.90;;;;;;4141789;28;20113;-79
2023/01/13 10:39:14;;;;;;;16.67;4.47;;;10.20;99.90;;;;;;4140518;28;20022;-80
2023/01/13 10:41:15;;;;;;;18.13;3.67;;;10.20;99.90;;;;;;4141430;28;20033;-79
2023/01/13 10:43:16;;;;;;;15.95;3.80;;;10.20;99.90;;;;;;4142228;28;20081;-78
2023/01/13 10:45:24;;;;;;;21.85;3.95;;;10.20;99.90;;;;;;4143291;28;20046;-79
2023/01/13 10:47:36;;;;;;;20.17;3.30;;;10.20;99.90;;;;;;4142977;28;20431;-79
2023/01/13 10:49:37;;;;;;;19.98;3.78;;;10.20;99.90;;;;;;4143321;28;20037;-78
2023/01/13 10:51:38;;;;;;;21.30;3.88;;;10.20;99.90;;;;;;4143501;28;20034;-78
2023/01/13 10:53:49;;;;;;;16.48;3.85;;;10.10;99.90;;;;;;4142131;28;20513;-77
2023/01/13 10:56:03;;;;;;;17.77;3.67;;;10.10;99.90;;;;;;4140851;28;20096;-78
2023/01/13 10:58:24;;;;;;;22.00;4.15;;;10.10;99.90;;;;;;4143863;28;20038;-78
2023/01/13 11:00:33;;;;;;;14.75;3.38;;;10.00;99.90;;;;;;4141332;28;20038;-79
2023/01/13 11:02:35;;;;;;;11.18;3.22;;;10.00;99.90;;;;;;4143241;28;20576;-78
2023/01/13 11:04:38;;;;;;;17.38;3.95;;;10.00;99.90;;;;;;4143618;28;20037;-77
2023/01/13 11:06:44;;;;;;;19.50;3.45;;;10.00;99.90;;;;;;4143334;28;20076;-77
2023/01/13 11:08:48;;;;;;;21.08;4.57;;;10.00;99.90;;;;;;4143233;28;20034;-77
2023/01/13 11:10:50;;;;;;;17.25;3.78;;;10.00;99.90;;;;;;4142623;28;20049;-77
2023/01/13 11:13:01;;;;;;;;;;;10.00;99.90;;;;;;4143141;28;20107;-76
2023/01/13 11:15:07;;;;;;;13.23;3.65;;;10.00;99.90;;;;;;4142541;28;19917;-76
2023/01/13 11:17:31;;;;;;;21.65;3.83;;;9.90;99.90;;;;;;4143256;28;20045;-77
2023/01/13 11:19:33;;;;;;;19.15;3.70;;;9.90;99.90;;;;;;4135375;28;20033;-76
2023/01/13 11:21:39;;;;;;;29.95;4.32;;;9.90;99.90;;;;;;4143141;28;20034;-76
2023/01/13 11:23:46;;;;;;;16.42;3.13;;;9.90;99.90;;;;;;4142520;28;20526;-76
2023/01/13 11:25:52;;;;;;;21.73;4.07;;;9.90;99.90;;;;;;4142416;28;20041;-76
2023/01/13 11:28:05;;;;;;;17.02;3.90;;;10.00;99.90;;;;;;4143031;28;20045;-76
2023/01/13 11:30:08;;;;;;;17.30;2.88;;;10.00;99.90;;;;;;4144273;28;20030;-78
2023/01/13 11:32:18;;;;;;;15.45;3.47;;;10.00;99.90;;;;;;4146136;28;20033;-78
2023/01/13 11:34:35;;;;;;;20.42;4.18;;;10.00;99.90;;;;;;4144308;28;20124;-78
2023/01/13 11:36:48;;;;;;;20.02;4.40;;;10.00;99.90;;;;;;4145516;28;20127;-77
2023/01/13 11:38:55;;;;;;;15.38;3.65;;;9.90;99.90;;;;;;4144414;28;20042;-77
2023/01/13 11:41:05;;;;;;;16.30;3.03;;;10.00;99.90;;;;;;4144170;28;20469;-78